Date,TemperatureHighF,TemperatureAvgF,TemperatureLowF,DewpointHighF,DewpointAvgF,DewpointLowF,HumidityHigh,HumidityAvg,HumidityLow,PressureMaxIn,PressureMinIn,WindSpeedMaxMPH,WindSpeedAvgMPH,GustSpeedMaxMPH,PrecipitationSumIn
2013-2-1,27.9,19.6,10.0,24.4,10.4,3.3,94,68,48,30.50,30.26,17,5,0,0.00
2013-2-2,45.9,34.9,25.2,35.3,27.8,21.6,99,76,50,30.26,30.01,11,5,0,0.00
2013-2-3,36.7,32.1,25.7,36.2,29.7,22.9,99,92,60,30.13,29.94,16,4,0,0.00
2013-2-4,47.3,38.8,25.9,47.0,37.1,25.7,99,94,60,30.02,29.78,14,5,0,0.00
2013-2-5,56.8,40.3,25.3,46.3,36.4,25.1,99,88,50,30.05,29.87,8,2,0,0.00
2013-2-6,51.8,39.9,25.7,44.1,36.0,25.5,99,88,54,30.22,30.04,7,2,0,0.00
2013-2-7,67.3,50.7,32.4,62.1,47.2,32.2,99,89,59,30.04,29.78,11,5,0,0.00
2013-2-8,44.6,38.1,32.5,44.3,37.8,32.3,99,99,99,30.33,29.91,15,7,0,0.00
2013-2-9,49.3,39.3,30.7,42.1,35.0,30.5,99,87,56,30.33,30.01,9,3,0,0.00
2013-2-10,56.5,50.4,40.1,56.2,49.7,39.8,99,98,75,30.00,29.61,13,6,0,0.00
2013-2-11,54.9,45.5,31.1,53.3,34.0,30.1,99,67,40,30.09,29.76,18,6,0,0.00
2013-2-12,49.8,39.9,25.7,44.8,35.3,25.5,99,86,60,30.12,29.83,6,2,0,0.00
2013-2-13,52.7,42.0,35.1,46.5,39.4,34.8,99,92,56,29.86,29.79,10,4,0,0.00
2013-2-14,61.7,47.3,36.0,46.6,39.5,35.7,99,78,46,29.98,29.82,10,4,0,0.00
2013-2-15,42.6,37.3,24.6,41.4,30.0,18.8,99,77,43,30.19,29.98,11,4,0,0.00
2013-2-16,37.6,28.6,20.8,26.8,20.9,12.3,99,77,36,30.20,30.13,11,4,0,0.00
2013-2-17,47.7,33.6,16.7,29.1,23.7,16.5,99,71,40,30.19,29.96,11,4,0,0.00
2013-2-18,57.9,48.1,40.8,53.5,45.1,28.8,99,90,61,29.96,29.56,18,8,0,0.00
2013-2-19,43.2,35.0,25.7,41.2,25.4,16.5,99,71,37,30.24,29.81,17,7,0,0.00
2013-2-20,30.4,25.5,21.7,26.6,19.2,14.2,99,77,63,30.34,30.23,8,4,0,0.00
2013-2-21,33.3,28.1,22.5,33.0,27.6,22.3,99,98,85,30.27,29.77,11,4,0,0.00
2013-2-22,43.2,35.3,26.6,42.9,35.0,26.4,99,99,99,30.03,29.76,13,3,0,0.00
2013-2-23,43.0,32.0,23.0,34.4,28.0,22.8,99,87,56,30.02,29.92,7,2,0,0.00
2013-2-24,49.8,35.9,20.5,38.8,30.5,20.3,99,84,49,30.11,29.97,6,2,0,0.00
2013-2-25,53.1,43.1,31.3,43.1,35.1,31.1,99,76,55,30.01,29.48,20,7,0,0.00
2013-2-26,51.4,43.1,37.2,51.1,42.8,36.9,99,99,99,29.59,29.27,17,6,0,0.00
2013-2-27,40.8,36.7,31.8,39.8,36.1,31.6,99,98,85,29.83,29.60,14,7,0,0.00
2013-2-28,38.1,34.5,32.0,37.8,34.2,31.8,99,99,99,30.04,29.82,11,5,0,0.00